Time;durP1;ratioP1;P1;durP2;ratioP2;P2;SDS_P1;SDS_P2;PMS_P1;PMS_P2;Temp;Humidity;BMP_temperature;BMP_pressure;BME280_temperature;BME280_humidity;BME280_pressure;Samples;Min_cycle;Max_cycle;Signal;HPM_P1;HPM_P2
2022/01/01 00:01:47;;;;;;;26.67;9.40;;;;;;;11.88;91.16;102240.47;4978540;28;20359;-76
2022/01/01 00:04:12;;;;;;;22.20;8.70;;;;;;;11.87;91.13;102235.13;4987221;28;20390;-75
2022/01/01 00:06:38;;;;;;;28.08;10.40;;;;;;;11.87;91.17;102232.38;4976847;28;20062;-75
2022/01/01 00:09:04;;;;;;;22.15;9.55;;;;;;;11.87;91.36;102237.84;4988082;28;20038;-75
2022/01/01 00:11:29;;;;;;;24.30;10.63;;;;;;;11.86;91.14;102241.53;4986748;28;20030;-75
2022/01/01 00:13:55;;;;;;;19.23;9.70;;;;;;;11.86;91.04;102244.25;4985626;28;20054;-77
2022/01/01 00:16:20;;;;;;;23.92;10.35;;;;;;;11.85;91.37;102234.34;4975731;28;20050;-75
2022/01/01 00:18:45;;;;;;;35.15;9.98;;;;;;;11.86;91.25;102236.09;4985582;28;20121;-75
2022/01/01 00:21:11;;;;;;;23.30;10.80;;;;;;;11.85;91.43;102237.94;4987068;28;20034;-77
2022/01/01 00:23:36;;;;;;;29.42;10.82;;;;;;;11.84;91.24;102251.63;4983722;28;20104;-76
2022/01/01 00:26:02;;;;;;;33.05;12.52;;;;;;;11.86;91.04;102255.16;4982434;28;20368;-76
2022/01/01 00:28:27;;;;;;;25.73;12.35;;;;;;;11.86;91.18;102257.91;4987105;28;20034;-77
2022/01/01 00:30:52;;;;;;;36.33;12.95;;;;;;;11.89;91.36;102249.53;4985444;28;20457;-75
2022/01/01 00:33:18;;;;;;;37.85;13.38;;;;;;;11.91;91.23;102253.06;4987412;28;20046;-74
2022/01/01 00:35:43;;;;;;;25.30;12.13;;;;;;;11.90;91.00;102254.91;4980699;28;20026;-77
2022/01/01 00:38:09;;;;;;;35.35;13.18;;;;;;;11.91;91.26;102251.22;4980144;28;20046;-77
2022/01/01 00:40:34;;;;;;;30.27;10.93;;;;;;;11.91;91.27;102255.78;4985559;28;20789;-75
2022/01/01 00:43:02;;;;;;;36.13;11.75;;;;;;;11.92;90.95;102246.66;4972643;28;20050;-75
2022/01/01 00:45:28;;;;;;;27.55;11.10;;;;;;;11.91;91.11;102236.72;4978352;28;20026;-74
2022/01/01 00:47:53;;;;;;;29.98;9.73;;;;;;;11.91;90.93;102239.44;4977521;28;20080;-76
2022/01/01 00:50:18;;;;;;;26.50;10.93;;;;;;;11.91;90.90;102244.88;4984971;28;20027;-76
2022/01/01 00:52:44;;;;;;;28.65;9.57;;;;;;;11.90;91.00;102238.56;4982924;28;20034;-76
2022/01/01 00:55:10;;;;;;;24.33;10.55;;;;;;;11.91;91.27;102237.59;4976343;28;20460;-76
2022/01/01 00:57:36;;;;;;;23.50;9.50;;;;;;;11.89;91.08;102236.81;4983929;28;20026;-75
2022/01/01 01:00:02;;;;;;;25.75;10.73;;;;;;;11.90;91.10;102245.84;4966541;28;20483;-75
2022/01/01 01:02:27;;;;;;;36.42;11.07;;;;;;;11.84;90.93;102243.44;4981474;28;20069;-76
2022/01/01 01:04:52;;;;;;;33.35;11.07;;;;;;;11.88;91.08;102248.66;4975719;28;20471;-77
2022/01/01 01:07:18;;;;;;;36.00;10.48;;;;;;;11.86;90.95;102247.00;4986534;28;20033;-76
2022/01/01 01:09:43;;;;;;;29.73;10.70;;;;;;;11.87;90.94;102246.03;4986722;28;20030;-78
2022/01/01 01:12:09;;;;;;;28.92;10.48;;;;;;;11.85;90.86;102242.50;4990116;28;20054;-77
2022/01/01 01:14:40;;;;;;;28.73;11.40;;;;;;;11.87;90.69;102248.75;4985210;28;20034;-77
2022/01/01 01:17:06;;;;;;;25.38;10.88;;;;;;;11.86;90.79;102249.72;4974598;28;20181;-77
2022/01/01 01:19:31;;;;;;;30.90;10.85;;;;;;;11.85;90.89;102254.28;4987884;28;20034;-77
2022/01/01 01:21:57;;;;;;;29.98;11.77;;;;;;;11.84;90.65;102244.31;4989210;28;20060;-75
2022/01/01 01:24:24;;;;;;;25.95;10.65;;;;;;;11.83;91.01;102245.31;4985976;28;20030;-75
2022/01/01 01:26:50;;;;;;;29.10;10.82;;;;;;;11.81;90.95;102246.34;4989799;28;20509;-76
2022/01/01 01:29:18;;;;;;;25.05;10.68;;;;;;;11.80;90.99;102252.72;4982415;28;20084;-76
2022/01/01 01:31:43;;;;;;;34.25;11.48;;;;;;;11.80;90.84;102256.38;4974640;28;20022;-76
2022/01/01 01:34:08;;;;;;;32.30;11.80;;;;;;;11.80;91.22;102264.53;4986414;28;20030;-76
2022/01/01 01:36:34;;;;;;;33.45;11.70;;;;;;;11.80;91.07;102258.19;4975314;28;20030;-76
2022/01/01 01:38:59;;;;;;;31.95;10.32;;;;;;;11.80;91.27;102260.91;4990180;28;20029;-77
2022/01/01 01:41:29;;;;;;;26.73;12.00;;;;;;;11.77;91.30;102259.25;4989003;28;20026;-77
2022/01/01 01:43:56;;;;;;;25.88;10.93;;;;;;;11.78;91.69;102268.31;4979311;28;20049;-77
2022/01/01 01:46:22;;;;;;;24.42;9.13;;;;;;;11.77;91.59;102264.69;4984485;28;20364;-76
2022/01/01 01:48:47;;;;;;;27.90;10.63;;;;;;;11.75;91.46;102267.53;4989027;28;20022;-77
2022/01/01 01:51:13;;;;;;;29.25;9.90;;;;;;;11.76;91.74;102268.41;4983381;28;20022;-78
2022/01/01 01:53:38;;;;;;;21.67;10.02;;;;;;;11.77;91.76;102274.72;4989333;28;20055;-76
2022/01/01 01:56:04;;;;;;;23.55;8.98;;;;;;;11.75;91.99;102274.81;4988673;28;20383;-77
2022/01/01 01:58:30;;;;;;;26.58;10.93;;;;;;;11.73;91.82;102272.16;4983349;28;20494;-76
2022/01/01 02:03:27;;;;;;;33.08;10.30;;;;;;;11.74;91.95;102283.94;4972530;28;20040;-76
2022/01/01 02:05:53;;;;;;;29.40;9.43;;;;;;;11.74;92.24;102279.38;4977519;28;20485;-75
2022/01/01 02:08:19;;;;;;;30.73;11.27;;;;;;;11.75;92.01;102277.56;4983081;28;20061;-74
2022/01/01 02:10:48;;;;;;;31.98;9.77;;;;;;;11.74;92.14;102282.09;4981970;28;20027;-75
2022/01/01 02:13:21;;;;;;;32.45;9.82;;;;;;;11.71;92.21;102278.69;4978267;28;20129;-75
2022/01/01 02:18:19;;;;;;;27.45;9.23;;;;;;;11.70;92.48;102277.81;4983191;28;20038;-75
2022/01/01 02:20:50;;;;;;;29.45;10.57;;;;;;;11.71;92.41;102275.94;4981518;28;20038;-75
2022/01/01 02:23:25;;;;;;;32.17;10.70;;;;;;;11.70;92.30;102255.09;4968614;28;20023;-75
2022/01/01 02:25:53;;;;;;;22.92;9.73;;;;;;;11.72;92.24;102264.06;4984835;28;20022;-76
2022/01/01 02:28:19;;;;;;;27.10;10.15;;;;;;;11.72;92.30;102264.06;4977644;28;20026;-75
2022/01/01 02:30:44;;;;;;;22.15;9.85;;;;;;;11.72;92.54;102273.13;4974423;28;20034;-76
2022/01/01 02:33:09;;;;;;;19.83;10.20;;;;;;;11.74;92.49;102263.00;4987596;28;20023;-76
2022/01/01 02:35:35;;;;;;;28.90;10.38;;;;;;;11.73;92.51;102263.09;4987218;28;20379;-75
2022/01/01 02:38:00;;;;;;;28.70;10.43;;;;;;;11.74;92.44;102264.84;4981790;28;20026;-78
2022/01/01 02:40:25;;;;;;;31.27;10.80;;;;;;;11.74;92.07;102265.72;4987899;28;20026;-75
2022/01/01 02:42:52;;;;;;;26.60;10.25;;;;;;;11.74;92.53;102271.19;4981838;28;20056;-74
2022/01/01 02:45:18;;;;;;;28.38;11.77;;;;;;;11.76;92.41;102273.84;4976594;28;20035;-76
2022/01/01 02:47:43;;;;;;;29.63;10.93;;;;;;;11.75;92.15;102270.25;4985508;28;20045;-75
2022/01/01 02:50:10;;;;;;;27.17;12.60;;;;;;;11.75;92.00;102266.66;4981530;28;20379;-76
2022/01/01 02:52:35;;;;;;;26.95;11.70;;;;;;;11.75;92.40;102262.06;4983354;28;20034;-76
2022/01/01 02:55:01;;;;;;;25.85;11.63;;;;;;;11.75;92.01;102248.44;4979098;28;20037;-75
2022/01/01 02:57:26;;;;;;;28.00;12.23;;;;;;;11.77;92.11;102250.19;4983396;28;20030;-77
2022/01/01 02:59:52;;;;;;;29.25;11.50;;;;;;;11.78;92.24;102249.22;4983229;28;20576;-76
2022/01/01 03:02:17;;;;;;;31.20;12.27;;;;;;;11.76;92.13;102238.41;4984511;28;20034;-76
2022/01/01 03:04:42;;;;;;;25.60;12.15;;;;;;;11.77;92.18;102234.72;4988306;28;20029;-78
2022/01/01 03:07:08;;;;;;;27.77;11.75;;;;;;;11.75;92.09;102232.09;4988129;28;20030;-76
2022/01/01 03:09:36;;;;;;;25.08;11.93;;;;;;;11.78;91.94;102227.41;4974914;28;20495;-75
2022/01/01 03:12:06;;;;;;;23.83;10.93;;;;;;;11.80;92.03;102241.81;4988017;28;20542;-77
2022/01/01 03:14:32;;;;;;;25.67;11.93;;;;;;;11.79;91.64;102243.66;4984147;28;20127;-76
2022/01/01 03:16:58;;;;;;;26.02;12.05;;;;;;;11.80;91.76;102241.81;4983299;28;20042;-76
2022/01/01 03:19:24;;;;;;;27.70;11.82;;;;;;;11.79;91.67;102248.25;4978012;28;20122;-76
2022/01/01 03:21:50;;;;;;;26.60;13.40;;;;;;;11.80;91.41;102250.91;4984220;28;20117;-76
2022/01/01 03:24:15;;;;;;;24.83;12.18;;;;;;;11.78;91.80;102241.91;4980713;28;20088;-74
2022/01/01 03:26:40;;;;;;;29.05;12.32;;;;;;;11.77;91.58;102237.44;4986132;28;20087;-75
2022/01/01 03:29:06;;;;;;;30.08;12.15;;;;;;;11.77;91.22;102242.88;4979900;28;20144;-76
2022/01/01 03:31:32;;;;;;;27.00;11.10;;;;;;;11.77;91.60;102233.84;4980435;28;20018;-75
2022/01/01 03:33:58;;;;;;;25.88;11.45;;;;;;;11.78;91.63;102228.28;4987986;28;20437;-75
2022/01/01 03:36:24;;;;;;;20.05;10.63;;;;;;;11.75;91.24;102234.81;4987771;28;20097;-76
2022/01/01 03:38:50;;;;;;;19.08;10.23;;;;;;;11.74;91.44;102230.28;4976230;28;20034;-75
2022/01/01 03:41:15;;;;;;;24.95;10.23;;;;;;;11.76;91.34;102235.69;4986913;28;20049;-77
2022/01/01 03:43:40;;;;;;;27.95;10.60;;;;;;;11.70;91.28;102236.91;4983775;28;20080;-76
2022/01/01 03:46:05;;;;;;;28.65;10.65;;;;;;;11.65;90.91;102233.53;4970651;28;20036;-76
2022/01/01 03:48:31;;;;;;;25.75;10.70;;;;;;;11.60;91.05;102226.56;4978976;28;20110;-75
2022/01/01 03:50:56;;;;;;;21.00;9.98;;;;;;;11.56;91.39;102225.84;4982690;28;20181;-76
2022/01/01 03:53:24;;;;;;;28.27;11.35;;;;;;;11.55;91.51;102226.81;4987616;28;20447;-76
2022/01/01 03:55:49;;;;;;;24.02;10.93;;;;;;;11.55;91.63;102226.81;4975777;28;20027;-76
2022/01/01 03:58:14;;;;;;;26.33;10.93;;;;;;;11.54;91.76;102222.34;4987699;28;20041;-75
2022/01/01 04:00:40;;;;;;;22.42;10.63;;;;;;;11.56;91.59;102222.25;4974579;28;20053;-76
2022/01/01 04:03:11;;;;;;;23.30;10.70;;;;;;;11.57;91.52;102227.63;4982875;28;20026;-75
2022/01/01 04:05:40;;;;;;;20.70;10.85;;;;;;;11.58;91.27;102232.13;4982588;28;20467;-76
2022/01/01 04:08:06;;;;;;;23.85;10.40;;;;;;;11.57;91.62;102227.63;4983491;28;20026;-75
2022/01/01 04:10:32;;;;;;;22.00;9.55;;;;;;;11.62;90.84;102235.56;4987214;28;20026;-76
2022/01/01 04:12:58;;;;;;;24.33;9.35;;;;;;;11.63;91.19;102224.56;4978451;28;20415;-76
2022/01/01 04:15:25;;;;;;;22.73;9.52;;;;;;;11.66;91.09;102226.25;4980386;28;20236;-75
2022/01/01 04:17:50;;;;;;;29.70;9.60;;;;;;;11.65;90.93;102230.78;4987484;28;20030;-75
2022/01/01 04:20:15;;;;;;;18.17;8.05;;;;;;;11.66;90.90;102224.41;4987336;28;20489;-75
2022/01/01 04:22:41;;;;;;;16.52;8.35;;;;;;;11.68;90.82;102222.47;4977118;28;20421;-75
2022/01/01 04:25:06;;;;;;;22.40;8.32;;;;;;;11.68;90.64;102221.59;4971277;28;20063;-75
2022/01/01 04:27:31;;;;;;;25.25;9.02;;;;;;;11.70;90.58;102225.09;4974082;28;20039;-75
2022/01/01 04:29:57;;;;;;;21.08;8.90;;;;;;;11.68;90.70;102219.75;4968967;28;20023;-75
2022/01/01 04:32:22;;;;;;;19.73;7.97;;;;;;;11.71;90.14;102227.75;4979168;28;20065;-75
2022/01/01 04:34:47;;;;;;;24.58;7.93;;;;;;;11.73;90.45;102231.25;4978423;28;20483;-75
2022/01/01 04:37:15;;;;;;;23.02;8.15;;;;;;;11.72;90.30;102226.78;4984063;28;20026;-75
2022/01/01 04:39:41;;;;;;;21.05;7.90;;;;;;;11.71;90.22;102230.47;4985217;28;20117;-75
2022/01/01 04:42:07;;;;;;;17.63;7.40;;;;;;;11.75;89.91;102236.66;4974472;28;20030;-75
2022/01/01 04:44:32;;;;;;;17.52;7.18;;;;;;;11.73;90.22;102235.84;4984455;28;20038;-76
2022/01/01 04:46:58;;;;;;;21.08;8.38;;;;;;;11.74;90.06;102234.88;4984525;28;20478;-75
2022/01/01 04:49:23;;;;;;;19.20;8.45;;;;;;;11.74;89.64;102233.03;4976762;28;20014;-75
2022/01/01 04:51:49;;;;;;;18.05;7.97;;;;;;;11.76;90.00;102235.69;4990561;28;20461;-77
2022/01/01 04:54:16;;;;;;;17.17;7.38;;;;;;;11.76;89.95;102241.13;4987555;28;20038;-75
2022/01/01 04:56:44;;;;;;;17.65;8.10;;;;;;;11.77;90.03;102239.28;4988347;28;20029;-75
2022/01/01 04:59:11;;;;;;;26.48;8.50;;;;;;;11.78;89.97;102244.66;4985566;28;20105;-76
2022/01/01 05:01:37;;;;;;;16.80;7.45;;;;;;;11.79;89.50;102248.25;4988006;28;20484;-78
2022/01/01 05:04:02;;;;;;;19.90;8.27;;;;;;;11.77;90.07;102242.88;4991057;28;20030;-77
2022/01/01 05:06:28;;;;;;;20.45;7.57;;;;;;;11.75;89.60;102245.72;4988659;28;20030;-76
2022/01/01 05:08:53;;;;;;;14.90;7.07;;;;;;;11.75;89.45;102250.28;4984021;28;20057;-75
2022/01/01 05:11:18;;;;;;;14.60;7.50;;;;;;;11.70;89.81;102236.00;4984225;28;20439;-78
2022/01/01 05:13:44;;;;;;;14.27;7.35;;;;;;;11.75;89.39;102244.84;4988227;28;20056;-75
2022/01/01 05:16:14;;;;;;;19.65;8.32;;;;;;;11.75;89.50;102245.72;4985231;28;20478;-75
2022/01/01 05:18:40;;;;;;;18.75;7.20;;;;;;;11.78;89.84;102247.38;4987624;28;20034;-76
2022/01/01 05:21:05;;;;;;;20.20;7.20;;;;;;;11.77;89.56;102253.78;4989870;28;20089;-77
2022/01/01 05:23:30;;;;;;;16.48;7.07;;;;;;;11.77;89.58;102253.78;4988384;28;20177;-75
2022/01/01 05:25:55;;;;;;;14.25;6.53;;;;;;;11.77;89.73;102259.25;4978146;28;20041;-75
2022/01/01 05:28:21;;;;;;;21.77;8.07;;;;;;;11.74;89.29;102253.94;4990171;28;20085;-75
2022/01/01 05:30:46;;;;;;;19.38;7.35;;;;;;;11.73;89.26;102258.53;4982780;28;20390;-75
2022/01/01 05:33:11;;;;;;;20.48;8.10;;;;;;;11.74;89.35;102260.28;4988680;28;20053;-77
2022/01/01 05:35:36;;;;;;;17.98;7.32;;;;;;;11.74;89.29;102260.28;4988694;28;20026;-75
2022/01/01 05:38:02;;;;;;;23.15;7.30;;;;;;;11.74;89.22;102251.22;4990051;28;20097;-75
2022/01/01 05:40:27;;;;;;;18.45;7.63;;;;;;;11.71;89.22;102255.03;4987969;28;20378;-75
2022/01/01 05:42:52;;;;;;;14.73;7.25;;;;;;;11.70;89.67;102253.25;4982602;28;20513;-75
2022/01/01 05:45:18;;;;;;;19.25;7.15;;;;;;;11.69;89.58;102254.19;4978524;28;20053;-75
2022/01/01 05:47:43;;;;;;;18.45;7.35;;;;;;;11.67;89.21;102256.16;4985787;28;20068;-77
2022/01/01 05:50:09;;;;;;;14.57;6.43;;;;;;;11.67;89.54;102253.41;4980196;28;20034;-75
2022/01/01 05:52:34;;;;;;;18.50;6.43;;;;;;;11.67;89.05;102247.97;4988611;28;20037;-76
2022/01/01 05:54:59;;;;;;;15.10;6.65;;;;;;;11.66;89.19;102248.94;4979052;28;20058;-77
2022/01/01 05:57:24;;;;;;;18.38;6.63;;;;;;;11.65;89.18;102244.44;4980164;28;20088;-75
2022/01/01 05:59:50;;;;;;;16.77;6.90;;;;;;;11.65;89.07;102240.81;4986711;28;20360;-78
2022/01/01 06:02:15;;;;;;;13.23;6.53;;;;;;;11.64;89.32;102245.41;4989299;28;20024;-78
2022/01/01 06:04:40;;;;;;;17.05;6.78;;;;;;;11.63;89.04;102245.50;4979970;28;20018;-76
2022/01/01 06:07:07;;;;;;;16.88;6.95;;;;;;;11.62;89.24;102241.88;4988951;28;20053;-76
2022/01/01 06:09:33;;;;;;;14.93;6.55;;;;;;;11.62;89.04;102233.72;4979213;28;20030;-75
2022/01/01 06:11:58;;;;;;;15.27;6.60;;;;;;;11.59;88.99;102233.88;4986674;28;20049;-77
2022/01/01 06:14:23;;;;;;;14.77;7.00;;;;;;;11.56;88.91;102228.56;4976579;28;20027;-78
2022/01/01 06:16:49;;;;;;;19.15;5.90;;;;;;;11.51;88.89;102227.94;4986342;28;20467;-76
2022/01/01 06:19:14;;;;;;;16.60;5.60;;;;;;;11.45;89.05;102228.28;4987725;28;20445;-78
2022/01/01 06:21:40;;;;;;;13.95;6.03;;;;;;;11.42;88.76;102229.34;4988408;28;20406;-77
2022/01/01 06:24:06;;;;;;;11.38;5.50;;;;;;;11.35;88.86;102230.63;4980051;28;20093;-76
2022/01/01 06:26:32;;;;;;;13.50;6.45;;;;;;;11.31;88.73;102233.59;4989746;28;20426;-75
2022/01/01 06:28:57;;;;;;;13.82;6.15;;;;;;;11.23;88.94;102240.31;4977663;28;20022;-75
2022/01/01 06:31:23;;;;;;;12.70;5.80;;;;;;;11.18;88.99;102238.81;4984235;28;20037;-74
2022/01/01 06:33:48;;;;;;;18.02;6.10;;;;;;;11.13;89.52;102241.78;4983542;28;20513;-76
2022/01/01 06:36:13;;;;;;;12.60;5.30;;;;;;;11.09;89.60;102242.00;4984422;28;20096;-76
2022/01/01 06:38:41;;;;;;;19.38;6.38;;;;;;;11.05;89.77;102241.31;4976690;28;20380;-75
2022/01/01 06:41:06;;;;;;;18.27;6.05;;;;;;;11.01;90.05;102236.09;4986224;28;20489;-76
2022/01/01 06:43:32;;;;;;;13.00;5.70;;;;;;;11.02;89.81;102244.19;4986432;28;20030;-75
2022/01/01 06:45:57;;;;;;;19.70;5.88;;;;;;;10.99;89.99;102238.88;4976250;28;20061;-75
2022/01/01 06:48:22;;;;;;;15.10;6.35;;;;;;;10.97;89.94;102244.44;4988626;28;20498;-75
2022/01/01 06:50:47;;;;;;;19.23;5.38;;;;;;;10.92;89.63;102238.34;4984069;28;20034;-75
2022/01/01 06:53:13;;;;;;;15.75;5.22;;;;;;;10.91;90.00;102239.31;4978151;28;20018;-76
2022/01/01 06:55:39;;;;;;;14.13;6.22;;;;;;;10.91;89.82;102239.31;4986687;28;20096;-76
2022/01/01 06:58:04;;;;;;;17.13;5.38;;;;;;;10.88;90.14;102233.13;4975122;28;20465;-76
2022/01/01 07:00:29;;;;;;;17.73;5.88;;;;;;;10.91;90.16;102246.56;4977097;28;20093;-76
2022/01/01 07:02:55;;;;;;;16.73;5.70;;;;;;;10.96;90.19;102259.00;4987693;28;20030;-75
2022/01/01 07:05:20;;;;;;;14.38;5.35;;;;;;;10.99;90.09;102255.22;4986202;28;20025;-75
2022/01/01 07:07:45;;;;;;;13.68;4.93;;;;;;;11.00;89.14;102251.53;4976161;28;20391;-77
2022/01/01 07:10:12;;;;;;;19.42;5.40;;;;;;;11.05;90.20;102260.38;4986659;28;20026;-75
2022/01/01 07:12:38;;;;;;;13.95;5.47;;;;;;;11.07;90.03;102265.72;4983220;28;20105;-76
2022/01/01 07:15:05;;;;;;;17.60;5.57;;;;;;;11.07;89.66;102263.00;4982197;28;20076;-77
2022/01/01 07:17:30;;;;;;;12.38;5.95;;;;;;;11.09;89.67;102264.69;4985305;28;20034;-75
2022/01/01 07:19:55;;;;;;;13.02;4.90;;;;;;;11.13;89.23;102268.13;4988280;28;20077;-75
2022/01/01 07:22:21;;;;;;;12.82;5.00;;;;;;;11.14;89.38;102269.88;4987209;28;20026;-76
2022/01/01 07:24:46;;;;;;;10.70;4.95;;;;;;;11.16;89.10;102270.72;4976849;28;20030;-76
2022/01/01 07:27:12;;;;;;;20.20;4.97;;;;;;;11.16;89.11;102273.44;4986425;28;20029;-75
2022/01/01 07:29:38;;;;;;;9.23;4.00;;;;;;;11.17;89.02;102278.78;4981765;28;20022;-75
2022/01/01 07:32:04;;;;;;;14.25;4.95;;;;;;;11.18;88.84;102275.09;4988458;28;20490;-77
2022/01/01 07:34:29;;;;;;;11.77;4.00;;;;;;;11.21;88.81;102283.13;4979334;28;20033;-75
2022/01/01 07:36:54;;;;;;;10.40;4.25;;;;;;;11.20;88.68;102278.63;4983686;28;20042;-76
2022/01/01 07:39:19;;;;;;;16.58;4.68;;;;;;;11.19;88.98;102293.22;4984848;28;20023;-75
2022/01/01 07:41:45;;;;;;;12.35;4.78;;;;;;;11.19;88.96;102295.94;4981527;28;20031;-77
2022/01/01 07:44:10;;;;;;;11.27;4.28;;;;;;;11.20;88.60;102284.09;4983505;28;20477;-77
2022/01/01 07:46:36;;;;;;;17.55;4.43;;;;;;;11.21;88.72;102291.28;4984161;28;20042;-76
2022/01/01 07:49:01;;;;;;;17.70;4.55;;;;;;;11.21;88.98;102301.31;4979857;28;20018;-77
2022/01/01 07:51:26;;;;;;;11.38;4.72;;;;;;;11.20;88.85;102285.94;4985190;28;20038;-76
2022/01/01 07:53:51;;;;;;;13.77;4.63;;;;;;;11.18;88.85;102283.28;4984830;28;20065;-76
2022/01/01 07:56:17;;;;;;;8.13;4.22;;;;;;;11.19;88.83;102297.75;4976512;28;20053;-75
2022/01/01 07:58:42;;;;;;;13.93;5.15;;;;;;;11.17;88.67;102300.59;4981246;28;20033;-76
2022/01/01 08:01:07;;;;;;;11.85;4.40;;;;;;;11.20;88.71;102300.44;4980377;28;20073;-76
2022/01/01 08:03:33;;;;;;;14.73;5.20;;;;;;;11.21;88.32;102304.03;4985366;28;20557;-76
2022/01/01 08:05:58;;;;;;;9.65;4.40;;;;;;;11.22;88.87;102308.50;4981183;28;20054;-75
2022/01/01 08:08:24;;;;;;;9.90;4.30;;;;;;;11.21;88.44;102302.19;4981894;28;20573;-77
2022/01/01 08:10:49;;;;;;;13.80;4.85;;;;;;;11.23;88.34;102305.69;4985693;28;20065;-76
2022/01/01 08:13:23;;;;;;;15.07;4.65;;;;;;;11.26;88.33;102314.69;4985320;28;20138;-76
2022/01/01 08:15:49;;;;;;;13.05;5.35;;;;;;;11.26;88.66;102309.25;4978136;28;20478;-75
2022/01/01 08:18:15;;;;;;;12.43;4.38;;;;;;;11.21;88.32;102299.47;4985095;28;20108;-76
2022/01/01 08:20:40;;;;;;;10.18;4.90;;;;;;;11.26;88.32;102301.94;4982373;28;20479;-76
2022/01/01 08:23:07;;;;;;;8.88;4.22;;;;;;;11.28;88.48;102300.00;5000984;28;20056;-76
2022/01/01 08:25:32;;;;;;;11.05;4.47;;;;;;;11.30;88.27;102299.97;4983111;28;20029;-77
2022/01/01 08:27:57;;;;;;;10.80;4.20;;;;;;;11.32;88.05;102303.47;4984189;28;20034;-76
2022/01/01 08:30:23;;;;;;;10.85;4.45;;;;;;;11.33;88.13;102299.78;4975988;28;20030;-75
2022/01/01 08:32:48;;;;;;;11.38;4.35;;;;;;;11.32;88.18;102304.34;4974237;28;20072;-75
2022/01/01 08:35:13;;;;;;;13.60;4.30;;;;;;;11.36;87.92;102307.81;4979697;28;20030;-77
2022/01/01 08:37:39;;;;;;;10.88;4.53;;;;;;;11.36;87.85;102308.69;4969909;28;20053;-77
2022/01/01 08:40:05;;;;;;;9.48;4.75;;;;;;;11.38;88.53;102305.91;4977364;28;20029;-77
2022/01/01 08:42:31;;;;;;;9.25;4.47;;;;;;;11.36;88.29;102286.00;4974996;28;20065;-76
2022/01/01 08:44:56;;;;;;;12.25;4.68;;;;;;;11.35;87.72;102297.88;4974829;28;20037;-76
2022/01/01 08:47:25;;;;;;;16.85;4.95;;;;;;;11.31;87.91;102291.69;4978212;28;20034;-76
2022/01/01 08:49:52;;;;;;;15.57;5.32;;;;;;;11.31;87.68;102299.00;4981632;28;20018;-75
2022/01/01 08:52:17;;;;;;;9.38;4.72;;;;;;;11.31;87.61;102308.03;4980983;28;20465;-76
2022/01/01 08:54:43;;;;;;;12.30;4.55;;;;;;;11.29;88.31;102311.81;4976126;28;20026;-76
2022/01/01 08:57:09;;;;;;;11.80;4.80;;;;;;;11.28;87.75;102316.34;4979351;28;20380;-77
2022/01/01 08:59:35;;;;;;;10.52;4.85;;;;;;;11.27;87.89;102311.88;4983423;28;20100;-76
2022/01/01 09:02:00;;;;;;;10.15;4.47;;;;;;;11.26;87.74;102301.94;4982423;28;20514;-76
2022/01/01 09:04:25;;;;;;;13.30;5.40;;;;;;;11.27;87.68;102302.81;4986538;28;20390;-77
2022/01/01 09:06:50;;;;;;;12.02;5.63;;;;;;;11.26;88.24;102299.22;4981332;28;20137;-76
2022/01/01 09:09:16;;;;;;;15.27;5.05;;;;;;;11.27;88.18;102290.09;4976916;28;20026;-77
2022/01/01 09:11:42;;;;;;;12.90;5.43;;;;;;;11.27;87.40;102289.22;4977951;28;20034;-75
2022/01/01 09:14:07;;;;;;;12.00;4.80;;;;;;;11.25;87.97;102289.28;4984493;28;20038;-76
2022/01/01 09:16:32;;;;;;;13.82;5.40;;;;;;;11.26;87.76;102288.31;4980662;28;20034;-75
2022/01/01 09:18:58;;;;;;;10.60;5.70;;;;;;;11.30;87.71;102291.78;4983205;28;20069;-76
2022/01/01 09:21:24;;;;;;;11.25;5.25;;;;;;;11.29;87.91;102288.19;4984945;28;21242;-76
2022/01/01 09:23:49;;;;;;;10.60;5.18;;;;;;;11.29;87.68;102290.91;4971752;28;20030;-77
2022/01/01 09:26:15;;;;;;;11.10;5.45;;;;;;;11.30;87.82;102283.59;4975204;28;20031;-77
2022/01/01 09:28:40;;;;;;;15.05;6.35;;;;;;;11.26;87.72;102282.88;4986116;28;20034;-76
2022/01/01 09:31:06;;;;;;;14.18;5.95;;;;;;;11.31;88.01;102278.06;4981495;28;20057;-76
2022/01/01 09:33:32;;;;;;;19.63;6.03;;;;;;;11.33;87.96;102284.34;4987818;28;20132;-75
2022/01/01 09:35:59;;;;;;;12.68;5.55;;;;;;;11.36;88.07;102280.56;4987709;28;20030;-77
2022/01/01 09:38:24;;;;;;;12.20;5.85;;;;;;;11.35;87.64;102282.41;4984169;28;20056;-76
2022/01/01 09:40:54;;;;;;;13.60;5.72;;;;;;;11.38;87.74;102282.25;4983509;28;20709;-75
2022/01/01 09:43:21;;;;;;;12.55;5.57;;;;;;;11.38;87.49;102281.38;4984424;28;20045;-76
2022/01/01 09:45:48;;;;;;;9.35;5.10;;;;;;;11.40;87.72;102287.59;4982646;28;20042;-76
2022/01/01 09:48:13;;;;;;;16.42;5.82;;;;;;;11.42;87.40;102282.94;4988294;28;20403;-75
2022/01/01 09:50:41;;;;;;;18.48;6.40;;;;;;;11.34;87.84;102264.28;4986142;28;20041;-77
2022/01/01 09:53:07;;;;;;;13.35;5.80;;;;;;;11.41;87.58;102270.28;4984083;28;20407;-75
2022/01/01 09:55:34;;;;;;;14.23;6.95;;;;;;;11.39;87.46;102266.78;4986282;28;20018;-75
2022/01/01 09:57:59;;;;;;;17.20;6.45;;;;;;;11.41;87.51;102273.00;4987401;28;20042;-78
2022/01/01 10:00:24;;;;;;;10.68;6.07;;;;;;;11.37;87.68;102258.66;4979870;28;20406;-76
2022/01/01 10:02:50;;;;;;;14.27;5.78;;;;;;;11.40;87.91;102273.97;4986664;28;20065;-77
2022/01/01 10:05:15;;;;;;;12.23;5.90;;;;;;;11.39;87.21;102261.31;4985711;28;20156;-77
2022/01/01 10:07:40;;;;;;;14.85;7.40;;;;;;;11.40;87.56;102266.69;4978228;28;20038;-77
2022/01/01 10:10:26;;;;;;;13.13;5.90;;;;;;;11.42;87.56;102256.59;4985290;28;20018;-77
2022/01/01 10:12:52;;;;;;;11.95;5.70;;;;;;;11.45;87.70;102261.00;4984464;28;20057;-76
2022/01/01 10:15:18;;;;;;;12.18;6.60;;;;;;;11.46;87.35;102246.41;4981013;28;20486;-76
2022/01/01 10:17:45;;;;;;;10.77;5.45;;;;;;;11.46;87.29;102232.75;4978461;28;20038;-76
2022/01/01 10:20:11;;;;;;;14.38;6.07;;;;;;;11.49;87.22;102240.78;4980917;28;20064;-76
2022/01/01 10:22:38;;;;;;;15.20;6.13;;;;;;;11.53;87.53;102236.06;4984185;28;20065;-76
2022/01/01 10:27:58;;;;;;;14.75;5.88;;;;;;;11.56;86.96;102234.03;4983788;28;20514;-75
2022/01/01 10:30:39;;;;;;;13.93;5.93;;;;;;;11.57;87.29;102230.34;4978810;28;20626;-76
2022/01/01 10:33:16;;;;;;;11.77;5.93;;;;;;;11.58;87.10;102223.06;4977338;28;20038;-77
2022/01/01 10:35:44;;;;;;;10.02;6.07;;;;;;;11.58;87.30;102228.50;4983911;28;20022;-76
2022/01/01 10:38:25;;;;;;;13.13;5.93;;;;;;;11.61;87.26;102223.78;4985418;28;20046;-77
2022/01/01 10:41:10;;;;;;;11.95;5.60;;;;;;;11.68;87.51;102221.59;4985673;28;20111;-75
2022/01/01 10:43:41;;;;;;;12.10;5.68;;;;;;;11.73;86.79;102234.00;4975265;28;20097;-77
2022/01/01 10:46:10;;;;;;;11.82;5.10;;;;;;;11.78;87.03;102217.38;4990223;28;20037;-77
2022/01/01 10:51:01;;;;;;;16.58;6.00;;;;;;;11.95;87.16;102206.44;4986700;28;20069;-77
2022/01/01 10:53:28;;;;;;;11.57;5.43;;;;;;;12.05;86.85;102195.03;4980848;28;20041;-77
2022/01/01 10:55:56;;;;;;;14.95;6.05;;;;;;;12.14;86.35;102199.94;4984440;28;20553;-77
2022/01/01 10:58:23;;;;;;;14.32;6.63;;;;;;;12.19;85.68;102197.84;4985288;28;20053;-76
2022/01/01 11:00:50;;;;;;;12.55;5.45;;;;;;;12.26;86.41;102193.75;4983432;28;20391;-77
2022/01/01 11:03:18;;;;;;;12.63;5.50;;;;;;;12.29;85.31;102201.78;4981138;28;20046;-76
2022/01/01 11:05:45;;;;;;;14.27;5.25;;;;;;;12.30;85.40;102200.81;4981133;28;20022;-76
2022/01/01 11:08:11;;;;;;;10.35;5.45;;;;;;;12.33;85.28;102191.56;4983026;28;20391;-76
2022/01/01 11:10:38;;;;;;;9.75;5.00;;;;;;;12.31;85.05;102191.69;4983160;28;20014;-74
2022/01/01 11:13:05;;;;;;;10.65;5.30;;;;;;;12.30;85.01;102203.53;4976844;28;20043;-78
2022/01/01 11:15:30;;;;;;;11.00;5.45;;;;;;;12.29;85.49;102200.91;4979724;28;20030;-75
2022/01/01 11:17:57;;;;;;;12.18;4.57;;;;;;;12.32;85.44;102190.69;4984956;28;20140;-75
2022/01/01 11:20:24;;;;;;;9.40;4.40;;;;;;;12.36;84.83;102189.56;4983097;28;20030;-78